createdAt,value
2022-12-20T00:01:43.257Z,1.07
2022-12-20T00:04:11.614Z,1.13
2022-12-20T00:06:38.666Z,1.22
2022-12-20T00:09:07.433Z,1.18
2022-12-20T00:11:35.101Z,1.13
2022-12-20T00:14:01.809Z,1.13
2022-12-20T00:16:29.511Z,1.18
2022-12-20T00:19:02.085Z,1.19
2022-12-20T00:21:29.575Z,1.19
2022-12-20T00:23:57.090Z,1.19
2022-12-20T00:26:27.159Z,1.19
2022-12-20T00:28:54.081Z,1.24
2022-12-20T00:31:22.529Z,1.29
2022-12-20T00:33:50.463Z,1.34
2022-12-20T00:36:18.991Z,1.29
2022-12-20T00:38:46.943Z,1.22
2022-12-20T00:41:20.684Z,1.20
2022-12-20T00:43:48.113Z,1.20
2022-12-20T00:46:18.911Z,1.15
2022-12-20T00:48:45.485Z,1.27
2022-12-20T00:51:15.444Z,1.26
2022-12-20T00:53:43.235Z,1.27
2022-12-20T00:56:10.553Z,1.28
2022-12-20T00:58:39.757Z,1.31
2022-12-20T01:01:14.264Z,1.35
2022-12-20T01:03:40.844Z,1.36
2022-12-20T01:06:07.651Z,1.36
2022-12-20T01:08:34.103Z,1.33
2022-12-20T01:11:01.207Z,1.36
2022-12-20T01:13:28.687Z,1.39
2022-12-20T01:15:55.379Z,1.45
2022-12-20T01:18:22.175Z,1.43
2022-12-20T01:20:48.945Z,1.41
2022-12-20T01:23:15.325Z,1.40
2022-12-20T01:25:41.912Z,1.38
2022-12-20T01:28:08.391Z,1.41
2022-12-20T01:30:34.860Z,1.45
2022-12-20T01:33:01.251Z,1.45
2022-12-20T01:35:27.733Z,1.50
2022-12-20T01:37:54.365Z,1.46
2022-12-20T01:40:20.790Z,1.42
2022-12-20T01:42:47.181Z,1.38
2022-12-20T01:45:26.617Z,1.40
2022-12-20T01:47:59.285Z,1.37
2022-12-20T01:50:26.616Z,1.37
2022-12-20T01:52:53.331Z,1.44
2022-12-20T01:55:26.331Z,1.40
2022-12-20T01:57:59.821Z,1.40
2022-12-20T02:00:26.789Z,1.36
2022-12-20T02:02:54.631Z,1.37
2022-12-20T02:05:23.603Z,1.27
2022-12-20T02:07:53.742Z,1.32
2022-12-20T02:10:24.160Z,1.36
2022-12-20T02:13:03.545Z,1.38
2022-12-20T02:15:43.480Z,1.33
2022-12-20T02:18:19.161Z,1.31
2022-12-20T02:21:14.370Z,1.29
2022-12-20T02:24:09.050Z,1.27
2022-12-20T02:26:53.848Z,1.22
2022-12-20T02:29:40.529Z,1.27
2022-12-20T02:32:26.389Z,1.33
2022-12-20T02:34:54.828Z,1.31
2022-12-20T02:37:21.709Z,1.29
2022-12-20T02:39:49.675Z,1.29
2022-12-20T02:42:23.265Z,1.36
2022-12-20T02:45:17.683Z,1.30
2022-12-20T02:48:02.371Z,1.24
2022-12-20T02:50:47.179Z,1.29
2022-12-20T02:53:14.824Z,1.25
2022-12-20T02:55:49.638Z,1.22
2022-12-20T02:58:36.880Z,1.28
2022-12-20T03:01:09.067Z,1.22
2022-12-20T03:03:36.213Z,1.21
2022-12-20T03:06:02.834Z,1.21
2022-12-20T03:08:30.001Z,1.19
2022-12-20T03:10:56.908Z,1.14
2022-12-20T03:13:24.530Z,1.15
2022-12-20T03:15:51.106Z,1.15
2022-12-20T03:18:17.573Z,1.19
2022-12-20T03:20:44.489Z,1.20
2022-12-20T03:23:10.921Z,1.19
2022-12-20T03:25:37.383Z,1.31
2022-12-20T03:28:04.203Z,1.27
2022-12-20T03:30:30.608Z,1.27
2022-12-20T03:32:57.028Z,1.25
2022-12-20T03:35:23.461Z,1.24
2022-12-20T03:37:49.871Z,1.29
2022-12-20T03:40:16.401Z,1.33
2022-12-20T03:42:43.255Z,1.32
2022-12-20T03:45:10.355Z,1.30
2022-12-20T03:47:37.029Z,1.21
2022-12-20T03:50:04.124Z,1.15
2022-12-20T03:52:30.602Z,1.12
2022-12-20T03:54:57.705Z,1.13
2022-12-20T03:57:24.225Z,1.10
2022-12-20T03:59:50.856Z,1.07
2022-12-20T04:02:17.430Z,1.18
2022-12-20T04:04:43.954Z,1.29
2022-12-20T04:07:10.409Z,1.22
2022-12-20T04:09:37.024Z,1.22
2022-12-20T04:12:03.630Z,1.16
2022-12-20T04:14:30.129Z,1.15
2022-12-20T04:16:56.583Z,1.15
2022-12-20T04:19:23.642Z,1.10
2022-12-20T04:21:50.112Z,1.16
2022-12-20T04:24:17.048Z,1.19
2022-12-20T04:26:43.591Z,1.17
2022-12-20T04:29:10.011Z,1.12
2022-12-20T04:31:36.646Z,1.15
2022-12-20T04:34:03.168Z,1.27
2022-12-20T04:36:29.565Z,1.24
2022-12-20T04:38:55.975Z,1.30
2022-12-20T04:41:22.770Z,1.25
2022-12-20T04:43:51.680Z,1.16
2022-12-20T04:46:20.716Z,1.18
2022-12-20T04:48:57.170Z,1.23
2022-12-20T04:51:24.621Z,1.20
2022-12-20T04:53:51.092Z,1.16
2022-12-20T04:56:30.583Z,1.10
2022-12-20T04:58:58.870Z,1.12
2022-12-20T05:01:25.761Z,1.18
2022-12-20T05:03:53.113Z,1.22
2022-12-20T05:06:20.521Z,1.19
2022-12-20T05:08:47.512Z,1.27
2022-12-20T05:11:14.642Z,1.31
2022-12-20T05:13:41.244Z,1.27
2022-12-20T05:16:08.112Z,1.28
2022-12-20T05:18:34.865Z,1.34
2022-12-20T05:21:20.948Z,1.31
2022-12-20T05:24:06.344Z,1.32
2022-12-20T05:26:36.543Z,1.34
2022-12-20T05:29:03.351Z,1.40
2022-12-20T05:31:29.829Z,1.37
2022-12-20T05:33:56.442Z,1.27
2022-12-20T05:36:22.891Z,1.25
2022-12-20T05:38:49.977Z,1.20
2022-12-20T05:41:16.453Z,1.20
2022-12-20T05:43:42.906Z,1.20
2022-12-20T05:46:11.158Z,1.19
2022-12-20T05:48:37.909Z,1.13
2022-12-20T05:51:04.631Z,1.18
2022-12-20T05:53:31.104Z,1.22
2022-12-20T05:55:57.995Z,1.24
2022-12-20T05:58:24.450Z,1.26
2022-12-20T06:00:50.911Z,1.17
2022-12-20T06:03:17.579Z,1.19
2022-12-20T06:05:45.451Z,1.20
2022-12-20T06:08:12.834Z,1.16
2022-12-20T06:10:41.572Z,1.16
2022-12-20T06:13:09.325Z,1.11
2022-12-20T06:15:36.344Z,1.17
2022-12-20T06:18:03.662Z,1.17
2022-12-20T06:20:30.071Z,1.21
2022-12-20T06:22:56.496Z,1.24
2022-12-20T06:25:22.941Z,1.32
2022-12-20T06:27:49.391Z,1.27
2022-12-20T06:30:16.951Z,1.27
2022-12-20T06:32:43.547Z,1.28
2022-12-20T06:35:10.180Z,1.32
2022-12-20T06:37:36.663Z,1.34
2022-12-20T06:40:04.487Z,1.36
2022-12-20T06:42:30.978Z,1.37
2022-12-20T06:44:57.417Z,1.39
2022-12-20T06:47:23.916Z,1.40
2022-12-20T06:49:50.355Z,1.44
2022-12-20T06:52:16.780Z,1.45
2022-12-20T06:54:43.265Z,1.48
2022-12-20T06:57:09.689Z,1.50
2022-12-20T06:59:36.110Z,1.56
2022-12-20T07:02:02.976Z,1.56
2022-12-20T07:04:29.585Z,1.69
2022-12-20T07:06:57.211Z,1.68
2022-12-20T07:09:24.146Z,1.73
2022-12-20T07:11:50.607Z,1.67
2022-12-20T07:14:17.009Z,1.69
2022-12-20T07:16:43.938Z,1.78
2022-12-20T07:19:12.556Z,1.72
2022-12-20T07:21:38.962Z,1.72
2022-12-20T07:24:06.107Z,1.78
2022-12-20T07:26:32.582Z,1.74
2022-12-20T07:28:59.194Z,1.73
2022-12-20T07:31:25.685Z,1.78
2022-12-20T07:33:52.583Z,1.80
2022-12-20T07:36:19.285Z,1.88
2022-12-20T07:38:45.983Z,1.88
2022-12-20T07:41:17.760Z,1.83
2022-12-20T07:43:44.367Z,1.86
2022-12-20T07:46:14.040Z,1.92
2022-12-20T07:48:40.526Z,1.87
2022-12-20T07:51:10.441Z,1.84
2022-12-20T07:53:43.336Z,1.82
2022-12-20T07:56:11.679Z,1.92
2022-12-20T07:58:40.659Z,1.92
2022-12-20T08:01:10.250Z,1.89
2022-12-20T08:03:50.959Z,1.84
2022-12-20T08:06:18.747Z,1.82
2022-12-20T08:08:50.163Z,1.80
2022-12-20T08:11:18.483Z,1.83
2022-12-20T08:13:46.723Z,1.93
2022-12-20T08:16:13.713Z,1.88
2022-12-20T08:18:40.222Z,1.88
2022-12-20T08:21:06.678Z,1.87
2022-12-20T08:23:33.068Z,1.94
2022-12-20T08:26:03.160Z,1.90
2022-12-20T08:28:29.677Z,1.91
2022-12-20T08:31:04.539Z,2.01
2022-12-20T08:33:32.623Z,2.03
2022-12-20T08:36:00.772Z,2.07
2022-12-20T08:38:28.917Z,2.16
2022-12-20T08:40:55.456Z,2.20
2022-12-20T08:43:21.883Z,2.22
2022-12-20T08:45:55.169Z,2.33
2022-12-20T08:48:22.536Z,2.34
2022-12-20T08:50:55.559Z,2.37
2022-12-20T08:53:22.305Z,2.41
2022-12-20T08:55:48.730Z,2.41
2022-12-20T08:58:15.981Z,2.53
2022-12-20T09:00:42.446Z,2.59
2022-12-20T09:03:11.546Z,2.61
2022-12-20T09:05:44.711Z,2.63
2022-12-20T09:08:11.157Z,2.66
2022-12-20T09:10:37.602Z,2.65
2022-12-20T09:13:04.085Z,2.70
2022-12-20T09:15:31.782Z,2.72
2022-12-20T09:17:58.285Z,2.72
2022-12-20T09:20:25.578Z,2.77
2022-12-20T09:22:51.994Z,2.79
2022-12-20T09:25:18.406Z,2.80
2022-12-20T09:27:45.201Z,2.90
2022-12-20T09:30:11.942Z,3.01
2022-12-20T09:32:38.323Z,2.99
2022-12-20T09:35:06.293Z,2.92
2022-12-20T09:37:33.308Z,2.93
2022-12-20T09:39:59.801Z,2.87
2022-12-20T09:42:33.220Z,2.89
2022-12-20T09:45:06.246Z,3.02
2022-12-20T09:47:36.159Z,2.96
2022-12-20T09:50:05.718Z,3.04
2022-12-20T09:52:51.798Z,3.06
2022-12-20T09:55:43.687Z,2.98
2022-12-20T09:58:15.129Z,3.01
2022-12-20T10:00:51.892Z,3.08
2022-12-20T10:03:26.393Z,3.05
2022-12-20T10:05:55.707Z,3.18
2022-12-20T10:08:43.229Z,3.15
2022-12-20T10:11:12.676Z,3.25
2022-12-20T10:13:55.234Z,3.32
2022-12-20T10:16:47.699Z,3.35
2022-12-20T10:19:37.570Z,3.37
2022-12-20T10:22:13.485Z,3.33
2022-12-20T10:24:41.613Z,3.31
2022-12-20T10:27:17.388Z,3.37
2022-12-20T10:29:44.695Z,3.43
2022-12-20T10:32:18.587Z,3.56
2022-12-20T10:35:10.927Z,3.58
2022-12-20T10:37:41.351Z,3.60
2022-12-20T10:40:46.430Z,3.57
2022-12-20T10:43:22.142Z,3.60
2022-12-20T10:45:56.788Z,3.60
2022-12-20T10:48:29.191Z,3.59
2022-12-20T10:50:58.763Z,3.77
2022-12-20T10:53:28.365Z,3.82
2022-12-20T10:56:10.255Z,3.77
2022-12-20T10:58:37.464Z,3.77
2022-12-20T11:01:18.280Z,3.90
2022-12-20T11:03:54.410Z,3.84
2022-12-20T11:06:24.000Z,3.94
2022-12-20T11:08:55.418Z,4.00
2022-12-20T11:11:27.458Z,3.99
2022-12-20T11:13:54.122Z,4.02
2022-12-20T11:16:37.893Z,4.10
2022-12-20T11:19:23.146Z,4.12
2022-12-20T11:22:16.754Z,4.09
2022-12-20T11:25:01.700Z,4.15
2022-12-20T11:27:40.395Z,4.09
2022-12-20T11:30:18.468Z,4.03
2022-12-20T11:33:12.580Z,4.02
2022-12-20T11:36:07.292Z,3.99
2022-12-20T11:38:43.732Z,4.02
2022-12-20T11:41:21.738Z,4.10
2022-12-20T11:44:25.283Z,4.12
2022-12-20T11:47:19.825Z,4.10
2022-12-20T11:50:00.640Z,4.13
2022-12-20T11:52:51.802Z,4.09
2022-12-20T11:55:34.749Z,4.16
2022-12-20T11:58:20.890Z,4.25
2022-12-20T12:01:03.935Z,4.30
2022-12-20T12:03:43.607Z,4.32
2022-12-20T12:06:20.383Z,4.30
2022-12-20T12:08:52.579Z,4.33
2022-12-20T12:14:29.910Z,4.29
2022-12-20T12:17:05.267Z,4.29
2022-12-20T12:19:34.450Z,4.33
2022-12-20T12:22:12.219Z,4.35
2022-12-20T12:24:43.375Z,4.22
2022-12-20T12:27:24.870Z,4.20
2022-12-20T12:29:54.383Z,4.14
2022-12-20T12:32:35.474Z,4.22
2022-12-20T12:35:21.765Z,4.24
2022-12-20T12:38:00.769Z,4.26
2022-12-20T12:40:30.186Z,4.27
2022-12-20T12:43:23.759Z,4.29
2022-12-20T12:45:55.943Z,4.32
2022-12-20T12:48:30.898Z,4.33
2022-12-20T12:50:58.795Z,4.49
2022-12-20T12:53:31.262Z,4.51
2022-12-20T12:56:19.415Z,4.51
2022-12-20T12:58:49.013Z,4.62
2022-12-20T13:01:56.591Z,4.72
2022-12-20T13:04:47.909Z,4.67
2022-12-20T13:07:32.497Z,4.64
2022-12-20T13:10:08.253Z,4.56
2022-12-20T13:12:37.674Z,4.62
2022-12-20T13:15:32.570Z,4.62
2022-12-20T13:18:21.732Z,4.65
2022-12-20T13:21:35.932Z,4.64
2022-12-20T13:24:48.608Z,4.69
2022-12-20T13:27:27.693Z,4.60
2022-12-20T13:30:22.301Z,4.65
2022-12-20T13:32:48.675Z,4.62
2022-12-20T13:35:24.217Z,4.50
2022-12-20T13:37:59.030Z,4.54
2022-12-20T13:40:31.425Z,4.61
2022-12-20T13:43:02.411Z,4.56
2022-12-20T13:45:29.511Z,4.44
2022-12-20T13:48:02.028Z,4.50
2022-12-20T13:50:40.482Z,4.44
2022-12-20T13:53:16.365Z,4.46
2022-12-20T13:55:43.077Z,4.36
2022-12-20T13:58:22.728Z,4.38
2022-12-20T14:00:50.394Z,4.37
2022-12-20T14:03:26.328Z,4.38
2022-12-20T14:06:04.210Z,4.37
2022-12-20T14:08:34.497Z,4.33
2022-12-20T14:11:27.414Z,4.30
2022-12-20T14:14:02.656Z,4.26
2022-12-20T14:16:31.997Z,4.28
2022-12-20T14:19:07.617Z,4.28
2022-12-20T14:21:43.717Z,4.28
2022-12-20T14:24:16.825Z,4.28
2022-12-20T14:26:48.047Z,4.18
2022-12-20T14:29:19.227Z,4.17
2022-12-20T14:31:48.508Z,4.15
2022-12-20T14:34:33.058Z,4.06
2022-12-20T14:37:36.135Z,4.09
2022-12-20T14:40:12.460Z,4.04
2022-12-20T14:42:40.704Z,4.06
2022-12-20T14:45:18.917Z,4.04
2022-12-20T14:48:09.370Z,4.03
2022-12-20T14:50:38.676Z,3.99
2022-12-20T14:53:17.875Z,4.03
2022-12-20T14:55:47.669Z,4.03
2022-12-20T14:58:32.289Z,4.08
2022-12-20T15:01:18.091Z,4.14
2022-12-20T15:03:59.260Z,4.09
2022-12-20T15:06:37.629Z,4.05
2022-12-20T15:09:05.576Z,4.07
2022-12-20T15:11:34.462Z,4.03
2022-12-20T15:14:00.997Z,3.95
2022-12-20T15:16:31.140Z,3.93
2022-12-20T15:18:59.811Z,3.89
2022-12-20T15:21:38.446Z,3.87
2022-12-20T15:24:10.079Z,3.82
2022-12-20T15:26:37.154Z,3.76
2022-12-20T15:29:04.466Z,3.76
2022-12-20T15:31:34.828Z,3.79
2022-12-20T15:34:10.219Z,3.76
2022-12-20T15:36:38.324Z,3.74
2022-12-20T15:39:13.245Z,3.72
2022-12-20T15:41:43.249Z,3.73
2022-12-20T15:44:18.945Z,3.70
2022-12-20T15:46:45.399Z,3.74
2022-12-20T15:49:21.449Z,3.69
2022-12-20T15:51:49.932Z,3.70
2022-12-20T15:54:27.644Z,3.68
2022-12-20T15:56:55.652Z,3.68
2022-12-20T15:59:58.390Z,3.66
2022-12-20T16:02:29.730Z,3.68
2022-12-20T16:04:56.584Z,3.66
2022-12-20T16:07:23.531Z,3.66
2022-12-20T16:09:50.014Z,3.65
2022-12-20T16:12:19.157Z,3.55
2022-12-20T16:14:45.654Z,3.54
2022-12-20T16:17:14.061Z,3.58
2022-12-20T16:19:41.292Z,3.62
2022-12-20T16:22:15.679Z,3.67
2022-12-20T16:24:42.070Z,3.65
2022-12-20T16:27:08.449Z,3.63
2022-12-20T16:29:34.860Z,3.62
2022-12-20T16:32:01.544Z,3.64
2022-12-20T16:34:27.976Z,3.61
2022-12-20T16:36:54.346Z,3.66
2022-12-20T16:39:21.697Z,3.66
2022-12-20T16:41:48.082Z,3.68
2022-12-20T16:44:16.035Z,3.67
2022-12-20T16:46:43.158Z,3.69
2022-12-20T16:49:19.426Z,3.70
2022-12-20T16:51:48.160Z,3.64
2022-12-20T16:54:21.718Z,3.68
2022-12-20T16:56:56.737Z,3.65
2022-12-20T16:59:24.311Z,3.56
2022-12-20T17:01:54.288Z,3.51
2022-12-20T17:04:21.440Z,3.53
2022-12-20T17:06:48.158Z,3.59
2022-12-20T17:09:16.237Z,3.58
2022-12-20T17:11:43.529Z,3.57
2022-12-20T17:14:13.069Z,3.57
2022-12-20T17:16:40.272Z,3.47
2022-12-20T17:19:06.820Z,3.47
2022-12-20T17:24:24.910Z,3.46
2022-12-20T17:26:51.439Z,3.52
2022-12-20T17:29:18.076Z,3.41
2022-12-20T17:31:46.466Z,3.38
2022-12-20T17:34:21.451Z,3.39
2022-12-20T17:36:49.378Z,3.34
2022-12-20T17:39:16.353Z,3.31
2022-12-20T17:41:43.929Z,3.30
2022-12-20T17:44:23.568Z,3.22
2022-12-20T17:46:50.757Z,3.13
2022-12-20T17:49:17.690Z,3.10
2022-12-20T17:51:44.577Z,3.08
2022-12-20T17:54:20.160Z,3.11
2022-12-20T17:56:47.142Z,3.01
2022-12-20T17:59:14.274Z,2.91
2022-12-20T18:01:42.831Z,2.86
2022-12-20T18:04:12.186Z,2.83
2022-12-20T18:06:41.071Z,2.80
2022-12-20T18:09:15.737Z,2.76
2022-12-20T18:11:42.931Z,2.78
2022-12-20T18:14:09.384Z,2.83
2022-12-20T18:16:36.102Z,2.99
2022-12-20T18:19:02.927Z,3.05
2022-12-20T18:21:29.455Z,3.01
2022-12-20T18:23:55.898Z,2.98
2022-12-20T18:26:31.216Z,2.93
2022-12-20T18:28:58.922Z,2.94
2022-12-20T18:31:27.912Z,2.97
2022-12-20T18:33:58.050Z,2.99
2022-12-20T18:36:28.328Z,2.91
2022-12-20T18:38:56.402Z,2.97
2022-12-20T18:41:25.546Z,2.94
2022-12-20T18:43:53.701Z,2.91
2022-12-20T18:46:22.048Z,2.89
2022-12-20T18:48:51.227Z,2.92
2022-12-20T18:51:20.364Z,2.92
2022-12-20T18:53:48.063Z,2.96
2022-12-20T18:56:21.430Z,3.03
2022-12-20T18:58:48.323Z,3.09
2022-12-20T19:01:29.350Z,3.09
2022-12-20T19:03:56.333Z,3.22
2022-12-20T19:06:23.508Z,3.23
2022-12-20T19:08:50.399Z,3.19
2022-12-20T19:11:24.325Z,3.19
2022-12-20T19:13:51.537Z,3.12
2022-12-20T19:16:21.203Z,3.22
2022-12-20T19:18:48.275Z,3.21
2022-12-20T19:21:18.581Z,3.21
2022-12-20T19:23:47.449Z,3.20
2022-12-20T19:26:15.364Z,3.18
2022-12-20T19:28:43.283Z,3.17
2022-12-20T19:31:21.257Z,3.29
2022-12-20T19:33:48.612Z,3.40
2022-12-20T19:36:22.210Z,3.38
2022-12-20T19:38:51.098Z,3.48
2022-12-20T19:41:18.064Z,3.44
2022-12-20T19:43:46.183Z,3.42
2022-12-20T19:46:12.666Z,3.46
2022-12-20T19:48:39.187Z,3.51
2022-12-20T19:51:11.712Z,3.43
2022-12-20T19:53:39.743Z,3.43
2022-12-20T19:56:08.690Z,3.43
2022-12-20T19:58:36.547Z,3.44
2022-12-20T20:01:05.098Z,3.45
2022-12-20T20:03:32.695Z,3.45
2022-12-20T20:05:59.202Z,3.53
2022-12-20T20:08:25.575Z,3.49
2022-12-20T20:10:53.307Z,3.48
2022-12-20T20:13:19.954Z,3.48
2022-12-20T20:15:58.758Z,3.53
2022-12-20T20:18:25.852Z,3.56
2022-12-20T20:20:53.925Z,3.61
2022-12-20T20:23:20.968Z,3.57
2022-12-20T20:25:49.925Z,3.61
2022-12-20T20:28:16.492Z,3.62
2022-12-20T20:30:48.024Z,3.60
2022-12-20T20:33:15.257Z,3.58
2022-12-20T20:35:41.748Z,3.65
2022-12-20T20:38:11.527Z,3.66
2022-12-20T20:40:39.330Z,3.65
2022-12-20T20:43:05.759Z,3.63
2022-12-20T20:45:32.136Z,3.64
2022-12-20T20:48:03.977Z,3.67
2022-12-20T20:50:32.358Z,3.67
2022-12-20T20:52:59.702Z,3.67
2022-12-20T20:55:26.095Z,3.65
2022-12-20T20:57:52.493Z,3.73
2022-12-20T21:00:19.201Z,3.72
2022-12-20T21:02:45.903Z,3.80
2022-12-20T21:07:59.233Z,3.74
2022-12-20T21:10:27.080Z,3.76
2022-12-20T21:12:53.724Z,3.76
2022-12-20T21:15:23.406Z,3.77
2022-12-20T21:17:50.330Z,3.96
2022-12-20T21:20:22.082Z,3.87
2022-12-20T21:22:52.028Z,3.85
2022-12-20T21:25:18.898Z,3.85
2022-12-20T21:27:47.272Z,3.83
2022-12-20T21:30:13.888Z,3.77
2022-12-20T21:32:40.326Z,3.79
2022-12-20T21:35:06.972Z,3.73
2022-12-20T21:37:33.446Z,3.66
2022-12-20T21:39:59.999Z,3.63
2022-12-20T21:42:26.605Z,3.64
2022-12-20T21:44:57.266Z,3.63
2022-12-20T21:47:27.335Z,3.70
2022-12-20T21:49:53.743Z,3.64
2022-12-20T21:52:20.135Z,3.64
2022-12-20T21:54:46.556Z,3.59
2022-12-20T21:57:13.043Z,3.57
2022-12-20T21:59:39.444Z,3.60
2022-12-20T22:02:06.393Z,3.60
2022-12-20T22:04:33.648Z,3.60
2022-12-20T22:07:00.033Z,3.64
2022-12-20T22:09:29.478Z,3.64
2022-12-20T22:11:59.112Z,3.62
2022-12-20T22:14:25.968Z,3.63
2022-12-20T22:16:55.504Z,3.61
2022-12-20T22:19:28.042Z,3.66
2022-12-20T22:21:58.833Z,3.66
2022-12-20T22:24:28.431Z,3.67
2022-12-20T22:26:59.092Z,3.69
2022-12-20T22:29:25.513Z,3.71
2022-12-20T22:31:52.574Z,3.63
2022-12-20T22:34:20.269Z,3.62
2022-12-20T22:36:49.423Z,3.61
2022-12-20T22:39:15.901Z,3.64
2022-12-20T22:41:42.357Z,3.55
2022-12-20T22:44:08.781Z,3.53
2022-12-20T22:46:35.416Z,3.53
2022-12-20T22:49:01.855Z,3.49
2022-12-20T22:51:30.776Z,3.44
2022-12-20T22:53:58.332Z,3.43
2022-12-20T22:56:25.060Z,3.42
2022-12-20T22:58:51.556Z,3.42
2022-12-20T23:01:20.116Z,3.50
2022-12-20T23:03:47.090Z,3.60
2022-12-20T23:06:16.073Z,3.50
2022-12-20T23:08:42.573Z,3.46
2022-12-20T23:11:42.978Z,3.33
2022-12-20T23:14:33.051Z,3.33
2022-12-20T23:16:59.656Z,3.32
2022-12-20T23:19:26.998Z,3.25
2022-12-20T23:22:11.993Z,3.27
2022-12-20T23:24:38.401Z,3.29
2022-12-20T23:27:04.791Z,3.21
2022-12-20T23:29:31.347Z,3.13
2022-12-20T23:31:57.760Z,3.14
2022-12-20T23:34:24.441Z,3.19
2022-12-20T23:36:50.828Z,3.25
2022-12-20T23:39:17.225Z,3.33
2022-12-20T23:41:43.644Z,3.37
2022-12-20T23:44:10.090Z,3.30
2022-12-20T23:46:36.528Z,3.28
2022-12-20T23:49:02.955Z,3.23
2022-12-20T23:51:29.405Z,3.21
2022-12-20T23:53:55.792Z,3.19
2022-12-20T23:56:24.696Z,3.17
2022-12-20T23:58:52.423Z,3.17
